createdAt,value
2022-12-18T00:01:25.263Z,93.31
2022-12-18T00:03:53.176Z,93.45
2022-12-18T00:06:20.717Z,93.12
2022-12-18T00:08:47.243Z,93.13
2022-12-18T00:11:19.611Z,93.90
2022-12-18T00:13:46.377Z,93.43
2022-12-18T00:16:15.838Z,93.75
2022-12-18T00:18:43.095Z,93.64
2022-12-18T00:21:12.392Z,94.12
2022-12-18T00:23:40.850Z,93.53
2022-12-18T00:26:12.921Z,94.42
2022-12-18T00:28:42.812Z,93.97
2022-12-18T00:31:12.898Z,93.97
2022-12-18T00:33:39.911Z,93.92
2022-12-18T00:36:15.828Z,93.90
2022-12-18T00:38:42.832Z,94.07
2022-12-18T00:41:12.195Z,93.14
2022-12-18T00:43:39.972Z,93.33
2022-12-18T00:46:07.207Z,93.45
2022-12-18T00:48:33.845Z,93.20
2022-12-18T00:51:00.292Z,93.50
2022-12-18T00:53:26.788Z,92.96
2022-12-18T00:55:53.215Z,93.54
2022-12-18T00:58:19.745Z,93.31
2022-12-18T01:00:46.230Z,94.15
2022-12-18T01:03:15.983Z,92.86
2022-12-18T01:05:44.357Z,93.87
2022-12-18T01:08:11.810Z,93.83
2022-12-18T01:10:41.338Z,93.19
2022-12-18T01:13:07.833Z,93.11
2022-12-18T01:15:34.230Z,92.95
2022-12-18T01:18:00.686Z,94.45
2022-12-18T01:20:27.218Z,94.10
2022-12-18T01:22:53.704Z,94.55
2022-12-18T01:25:20.142Z,94.63
2022-12-18T01:27:46.598Z,94.21
2022-12-18T01:30:13.165Z,94.94
2022-12-18T01:32:39.661Z,95.18
2022-12-18T01:35:06.896Z,94.12
2022-12-18T01:37:33.449Z,94.51
2022-12-18T01:39:59.909Z,95.60
2022-12-18T01:42:26.364Z,94.93
2022-12-18T01:45:00.523Z,95.33
2022-12-18T01:47:29.579Z,95.26
2022-12-18T01:49:57.861Z,94.29
2022-12-18T01:52:27.020Z,95.21
2022-12-18T01:54:54.096Z,94.78
2022-12-18T01:57:21.494Z,94.35
2022-12-18T01:59:52.753Z,94.23
2022-12-18T02:02:20.702Z,94.01
2022-12-18T02:04:49.547Z,95.05
2022-12-18T02:07:24.412Z,94.04
2022-12-18T02:10:13.709Z,94.84
2022-12-18T02:12:53.595Z,94.84
2022-12-18T02:15:31.968Z,94.09
2022-12-18T02:18:12.285Z,94.26
2022-12-18T02:20:48.855Z,94.15
2022-12-18T02:23:43.945Z,94.03
2022-12-18T02:26:19.471Z,94.92
2022-12-18T02:29:01.358Z,93.89
2022-12-18T02:31:35.433Z,94.52
2022-12-18T02:34:05.746Z,94.47
2022-12-18T02:36:41.258Z,93.81
2022-12-18T02:39:11.459Z,94.17
2022-12-18T02:41:43.568Z,93.51
2022-12-18T02:44:13.185Z,94.11
2022-12-18T02:46:53.451Z,93.43
2022-12-18T02:49:40.998Z,93.32
2022-12-18T02:52:54.591Z,94.30
2022-12-18T02:55:48.226Z,93.54
2022-12-18T02:58:27.355Z,93.13
2022-12-18T03:01:25.438Z,93.17
2022-12-18T03:03:58.640Z,92.97
2022-12-18T03:06:30.896Z,93.42
2022-12-18T03:09:05.095Z,93.79
2022-12-18T03:11:35.230Z,93.28
2022-12-18T03:14:02.847Z,93.22
2022-12-18T03:16:32.082Z,93.34
2022-12-18T03:19:09.898Z,93.50
2022-12-18T03:21:48.768Z,93.51
2022-12-18T03:24:19.837Z,94.22
2022-12-18T03:26:51.711Z,93.13
2022-12-18T03:29:30.749Z,92.91
2022-12-18T03:32:04.508Z,93.74
2022-12-18T03:34:36.303Z,94.06
2022-12-18T03:37:06.885Z,93.53
2022-12-18T03:39:35.632Z,93.36
2022-12-18T03:42:16.413Z,93.32
2022-12-18T03:45:10.691Z,93.51
2022-12-18T03:48:02.439Z,93.66
2022-12-18T03:50:39.283Z,93.33
2022-12-18T03:53:15.748Z,93.72
2022-12-18T03:55:46.342Z,94.00
2022-12-18T03:58:18.507Z,93.95
2022-12-18T04:00:58.780Z,93.12
2022-12-18T04:03:26.936Z,93.73
2022-12-18T04:05:56.246Z,93.10
2022-12-18T04:08:24.817Z,93.11
2022-12-18T04:11:00.696Z,93.82
2022-12-18T04:13:34.890Z,93.14
2022-12-18T04:16:03.676Z,93.46
2022-12-18T04:18:30.735Z,94.86
2022-12-18T04:20:57.794Z,94.32
2022-12-18T04:23:25.063Z,93.92
2022-12-18T04:25:52.114Z,93.60
2022-12-18T04:28:31.197Z,93.72
2022-12-18T04:30:57.990Z,93.31
2022-12-18T04:33:24.547Z,94.01
2022-12-18T04:35:51.103Z,94.77
2022-12-18T04:38:17.844Z,94.76
2022-12-18T04:40:45.363Z,95.82
2022-12-18T04:43:20.706Z,95.31
2022-12-18T04:45:47.179Z,96.19
2022-12-18T04:48:13.589Z,95.39
2022-12-18T04:50:40.089Z,96.40
2022-12-18T04:53:07.449Z,96.51
2022-12-18T04:55:33.941Z,95.79
2022-12-18T04:58:00.341Z,95.77
2022-12-18T05:00:26.931Z,95.71
2022-12-18T05:02:54.138Z,95.31
2022-12-18T05:05:20.682Z,95.45
2022-12-18T05:07:47.136Z,95.33
2022-12-18T05:10:13.584Z,95.97
2022-12-18T05:12:40.049Z,95.30
2022-12-18T05:15:07.224Z,95.59
2022-12-18T05:17:33.635Z,95.63
2022-12-18T05:20:00.107Z,95.61
2022-12-18T05:22:26.536Z,95.76
2022-12-18T05:24:52.986Z,95.85
2022-12-18T05:27:19.447Z,94.82
2022-12-18T05:29:45.920Z,95.03
2022-12-18T05:32:12.364Z,95.11
2022-12-18T05:34:38.783Z,95.27
2022-12-18T05:37:05.251Z,94.79
2022-12-18T05:39:31.684Z,94.64
2022-12-18T05:41:58.201Z,95.13
2022-12-18T05:44:24.782Z,95.31
2022-12-18T05:46:51.263Z,95.28
2022-12-18T05:49:17.698Z,95.40
2022-12-18T05:51:44.128Z,94.60
2022-12-18T05:54:10.534Z,95.01
2022-12-18T05:56:36.952Z,94.55
2022-12-18T05:59:03.788Z,94.32
2022-12-18T06:01:30.374Z,94.58
2022-12-18T06:03:57.599Z,94.80
2022-12-18T06:06:26.885Z,94.91
2022-12-18T06:08:54.535Z,94.22
2022-12-18T06:11:27.051Z,94.79
2022-12-18T06:13:58.567Z,93.98
2022-12-18T06:16:25.224Z,94.32
2022-12-18T06:18:51.641Z,95.05
2022-12-18T06:21:18.214Z,94.54
2022-12-18T06:23:44.652Z,94.39
2022-12-18T06:26:13.028Z,94.28
2022-12-18T06:28:39.638Z,94.68
2022-12-18T06:31:07.316Z,94.79
2022-12-18T06:33:35.015Z,94.66
2022-12-18T06:36:04.092Z,93.86
2022-12-18T06:38:31.809Z,94.14
2022-12-18T06:40:58.276Z,94.44
2022-12-18T06:43:24.987Z,94.29
2022-12-18T06:45:51.476Z,93.75
2022-12-18T06:48:17.968Z,94.72
2022-12-18T06:50:44.420Z,94.32
2022-12-18T06:53:10.850Z,94.60
2022-12-18T06:55:37.317Z,93.80
2022-12-18T06:58:04.433Z,94.08
2022-12-18T07:00:30.957Z,94.41
2022-12-18T07:02:57.407Z,93.91
2022-12-18T07:05:23.898Z,94.12
2022-12-18T07:07:50.363Z,94.23
2022-12-18T07:10:16.941Z,94.23
2022-12-18T07:12:43.400Z,94.33
2022-12-18T07:15:10.279Z,93.72
2022-12-18T07:17:36.699Z,93.37
2022-12-18T07:20:03.362Z,93.23
2022-12-18T07:22:29.841Z,93.61
2022-12-18T07:24:56.372Z,93.38
2022-12-18T07:27:23.541Z,93.29
2022-12-18T07:29:50.062Z,93.67
2022-12-18T07:32:16.764Z,93.10
2022-12-18T07:34:43.290Z,92.94
2022-12-18T07:37:09.720Z,92.86
2022-12-18T07:39:36.194Z,93.06
2022-12-18T07:42:02.611Z,93.15
2022-12-18T07:44:29.104Z,92.84
2022-12-18T07:46:55.562Z,92.96
2022-12-18T07:49:22.007Z,92.75
2022-12-18T07:51:48.416Z,93.25
2022-12-18T07:54:14.897Z,93.02
2022-12-18T07:56:41.347Z,92.88
2022-12-18T07:59:07.990Z,92.79
2022-12-18T08:01:34.923Z,93.21
2022-12-18T08:04:01.477Z,92.60
2022-12-18T08:06:27.886Z,92.76
2022-12-18T08:08:55.480Z,92.87
2022-12-18T08:11:23.618Z,93.29
2022-12-18T08:13:50.105Z,92.62
2022-12-18T08:16:16.842Z,92.09
2022-12-18T08:18:43.441Z,92.17
2022-12-18T08:21:11.751Z,92.42
2022-12-18T08:23:42.585Z,92.51
2022-12-18T08:26:10.465Z,91.50
2022-12-18T08:28:36.993Z,92.29
2022-12-18T08:31:03.652Z,92.25
2022-12-18T08:33:30.394Z,92.04
2022-12-18T08:35:56.907Z,91.85
2022-12-18T08:38:23.328Z,91.64
2022-12-18T08:40:49.780Z,91.75
2022-12-18T08:43:16.231Z,91.51
2022-12-18T08:45:42.740Z,91.32
2022-12-18T08:48:09.185Z,90.83
2022-12-18T08:50:35.684Z,90.78
2022-12-18T08:53:02.121Z,90.90
2022-12-18T08:55:28.578Z,90.66
2022-12-18T08:57:54.996Z,90.38
2022-12-18T09:00:21.494Z,90.67
2022-12-18T09:02:48.086Z,90.44
2022-12-18T09:05:15.038Z,90.71
2022-12-18T09:07:41.466Z,90.16
2022-12-18T09:10:08.267Z,90.14
2022-12-18T09:12:34.715Z,89.66
2022-12-18T09:15:01.175Z,89.21
2022-12-18T09:17:27.605Z,89.54
2022-12-18T09:19:54.091Z,89.10
2022-12-18T09:22:20.516Z,89.75
2022-12-18T09:24:46.955Z,89.41
2022-12-18T09:27:13.382Z,89.21
2022-12-18T09:29:39.913Z,88.75
2022-12-18T09:32:06.369Z,88.73
2022-12-18T09:34:32.878Z,88.45
2022-12-18T09:36:59.328Z,88.60
2022-12-18T09:39:25.760Z,88.47
2022-12-18T09:41:55.539Z,88.47
2022-12-18T09:44:33.701Z,88.34
2022-12-18T09:47:15.696Z,88.17
2022-12-18T09:49:47.897Z,87.59
2022-12-18T09:52:26.180Z,88.05
2022-12-18T09:55:01.805Z,88.08
2022-12-18T09:57:34.220Z,88.10
2022-12-18T10:00:12.415Z,87.62
2022-12-18T10:02:38.987Z,87.37
2022-12-18T10:05:08.495Z,87.33
2022-12-18T10:08:00.155Z,87.23
2022-12-18T10:10:49.608Z,87.63
2022-12-18T10:13:47.604Z,87.06
2022-12-18T10:16:20.363Z,86.98
2022-12-18T10:19:05.239Z,86.86
2022-12-18T10:22:13.144Z,87.21
2022-12-18T10:25:07.705Z,86.48
2022-12-18T10:27:34.428Z,86.81
2022-12-18T10:30:09.977Z,86.94
2022-12-18T10:32:36.447Z,87.24
2022-12-18T10:35:02.886Z,86.33
2022-12-18T10:37:30.701Z,86.44
2022-12-18T10:40:22.022Z,86.36
2022-12-18T10:43:12.743Z,85.74
2022-12-18T10:45:39.455Z,85.60
2022-12-18T10:48:18.170Z,86.13
2022-12-18T10:51:10.486Z,85.25
2022-12-18T10:53:37.625Z,85.46
2022-12-18T10:56:06.224Z,86.24
2022-12-18T10:58:38.334Z,85.84
2022-12-18T11:01:17.115Z,85.48
2022-12-18T11:03:46.224Z,85.88
2022-12-18T11:06:19.784Z,86.05
2022-12-18T11:09:00.019Z,85.34
2022-12-18T11:11:26.739Z,85.15
2022-12-18T11:13:58.575Z,84.97
2022-12-18T11:16:25.287Z,85.13
2022-12-18T11:18:51.898Z,85.21
2022-12-18T11:21:18.472Z,85.44
2022-12-18T11:23:51.510Z,84.87
2022-12-18T11:26:18.393Z,84.85
2022-12-18T11:29:09.427Z,84.49
2022-12-18T11:31:35.949Z,84.00
2022-12-18T11:34:28.593Z,83.80
2022-12-18T11:36:58.533Z,84.52
2022-12-18T11:39:38.592Z,84.82
2022-12-18T11:42:46.337Z,84.82
2022-12-18T11:45:13.049Z,84.19
2022-12-18T11:47:53.239Z,83.73
2022-12-18T11:50:24.999Z,84.80
2022-12-18T11:52:56.552Z,84.43
2022-12-18T11:55:31.146Z,84.76
2022-12-18T11:58:09.941Z,84.96
2022-12-18T12:00:48.178Z,84.88
2022-12-18T12:03:20.369Z,84.92
2022-12-18T12:05:54.193Z,84.59
2022-12-18T12:08:42.882Z,84.02
2022-12-18T12:11:21.841Z,85.02
2022-12-18T12:14:06.161Z,83.92
2022-12-18T12:16:44.219Z,84.54
2022-12-18T12:19:28.832Z,84.94
2022-12-18T12:22:11.796Z,84.13
2022-12-18T12:24:57.010Z,84.90
2022-12-18T12:27:49.158Z,84.58
2022-12-18T12:30:36.069Z,84.69
2022-12-18T12:33:17.815Z,85.29
2022-12-18T12:35:53.297Z,85.18
2022-12-18T12:38:28.057Z,85.02
2022-12-18T12:41:06.397Z,84.91
2022-12-18T12:43:50.815Z,84.68
2022-12-18T12:46:21.236Z,84.60
2022-12-18T12:48:52.934Z,84.99
2022-12-18T12:51:35.518Z,85.31
2022-12-18T12:54:06.177Z,85.64
2022-12-18T12:56:49.472Z,85.06
2022-12-18T13:00:01.617Z,84.78
2022-12-18T13:02:31.196Z,84.84
2022-12-18T13:05:13.131Z,85.50
2022-12-18T13:07:59.304Z,85.00
2022-12-18T13:10:27.923Z,84.76
2022-12-18T13:13:17.164Z,85.09
2022-12-18T13:16:10.347Z,85.68
2022-12-18T13:18:38.385Z,85.57
2022-12-18T13:21:23.663Z,85.56
2022-12-18T13:23:50.740Z,85.56
2022-12-18T13:26:17.084Z,85.63
2022-12-18T13:28:46.223Z,86.11
2022-12-18T13:31:14.169Z,86.36
2022-12-18T13:34:23.908Z,86.02
2022-12-18T13:36:34.332Z,85.67
2022-12-18T13:39:26.538Z,86.17
2022-12-18T13:42:05.495Z,86.64
2022-12-18T13:44:40.641Z,86.54
2022-12-18T13:47:37.218Z,87.34
2022-12-18T13:50:40.070Z,87.85
2022-12-18T13:53:06.560Z,87.60
2022-12-18T13:55:33.206Z,88.21
2022-12-18T13:58:13.275Z,88.11
2022-12-18T14:00:44.095Z,88.83
2022-12-18T14:03:22.408Z,87.99
2022-12-18T14:06:06.748Z,88.65
2022-12-18T14:08:38.912Z,89.41
2022-12-18T14:11:07.479Z,89.06
2022-12-18T14:13:42.085Z,88.80
2022-12-18T14:16:14.963Z,89.23
2022-12-18T14:18:53.718Z,90.34
2022-12-18T14:21:29.173Z,90.08
2022-12-18T14:24:21.688Z,90.51
2022-12-18T14:26:50.634Z,91.04
2022-12-18T14:29:31.357Z,90.78
2022-12-18T14:32:17.903Z,90.70
2022-12-18T14:34:52.742Z,90.70
2022-12-18T14:37:23.796Z,91.05
2022-12-18T14:40:03.191Z,91.41
2022-12-18T14:42:33.698Z,91.67
2022-12-18T14:45:40.923Z,91.49
2022-12-18T14:48:19.689Z,91.74
2022-12-18T14:50:59.344Z,92.80
2022-12-18T14:53:59.212Z,92.40
2022-12-18T14:56:36.997Z,92.45
2022-12-18T14:59:25.107Z,92.87
2022-12-18T15:02:24.095Z,92.85
2022-12-18T15:05:18.850Z,92.50
2022-12-18T15:07:51.234Z,93.31
2022-12-18T15:10:21.027Z,93.44
2022-12-18T15:12:58.253Z,93.49
2022-12-18T15:15:33.806Z,93.48
2022-12-18T15:18:09.058Z,93.62
2022-12-18T15:20:50.836Z,94.20
2022-12-18T15:23:22.225Z,94.20
2022-12-18T15:26:09.888Z,94.09
2022-12-18T15:28:46.139Z,94.26
2022-12-18T15:31:12.610Z,94.48
2022-12-18T15:33:44.813Z,94.78
2022-12-18T15:36:14.452Z,95.06
2022-12-18T15:38:41.271Z,95.39
2022-12-18T15:41:14.568Z,96.11
2022-12-18T15:43:41.909Z,96.45
2022-12-18T15:46:17.021Z,96.04
2022-12-18T15:48:54.402Z,95.93
2022-12-18T15:51:36.202Z,96.04
2022-12-18T15:54:05.637Z,96.71
2022-12-18T15:56:32.735Z,95.83
2022-12-18T15:59:00.646Z,95.96
2022-12-18T16:01:30.620Z,96.74
2022-12-18T16:03:58.099Z,96.30
2022-12-18T16:06:24.644Z,96.73
2022-12-18T16:08:51.133Z,96.44
2022-12-18T16:11:28.156Z,96.60
2022-12-18T16:13:54.603Z,97.11
2022-12-18T16:16:21.035Z,97.29
2022-12-18T16:18:47.520Z,97.45
2022-12-18T16:21:13.997Z,97.45
2022-12-18T16:23:40.792Z,97.61
2022-12-18T16:26:08.787Z,97.95
2022-12-18T16:28:35.283Z,97.73
2022-12-18T16:31:01.808Z,98.45
2022-12-18T16:33:28.266Z,97.81
2022-12-18T16:35:54.686Z,98.37
2022-12-18T16:38:21.111Z,98.23
2022-12-18T16:40:47.561Z,97.56
2022-12-18T16:43:14.046Z,98.39
2022-12-18T16:45:41.663Z,98.46
2022-12-18T16:48:08.115Z,97.95
2022-12-18T16:50:37.714Z,98.09
2022-12-18T16:53:04.158Z,98.71
2022-12-18T16:55:30.562Z,99.12
2022-12-18T16:57:57.031Z,98.72
2022-12-18T17:00:23.466Z,98.78
2022-12-18T17:02:50.112Z,99.27
2022-12-18T17:05:16.775Z,99.16
2022-12-18T17:07:43.216Z,99.28
2022-12-18T17:10:09.902Z,99.40
2022-12-18T17:12:36.563Z,99.22
2022-12-18T17:15:03.163Z,100.00
2022-12-18T17:17:29.579Z,99.42
2022-12-18T17:19:56.033Z,100.00
2022-12-18T17:22:22.553Z,100.00
2022-12-18T17:24:49.023Z,100.00
2022-12-18T17:27:15.577Z,100.00
2022-12-18T17:29:47.407Z,100.00
2022-12-18T17:32:14.717Z,100.00
2022-12-18T17:34:41.219Z,100.00
2022-12-18T17:37:08.046Z,99.99
2022-12-18T17:39:34.484Z,100.00
2022-12-18T17:42:01.055Z,100.00
2022-12-18T17:44:27.480Z,100.00
2022-12-18T17:46:54.020Z,100.00
2022-12-18T17:49:21.065Z,100.00
2022-12-18T17:51:47.607Z,100.00
2022-12-18T17:54:14.121Z,100.00
2022-12-18T17:56:40.588Z,100.00
2022-12-18T17:59:07.608Z,100.00
2022-12-18T18:01:36.436Z,100.00
2022-12-18T18:04:05.333Z,100.00
2022-12-18T18:06:31.831Z,100.00
2022-12-18T18:09:00.972Z,100.00
2022-12-18T18:11:27.714Z,100.00
2022-12-18T18:13:54.442Z,100.00
2022-12-18T18:16:20.895Z,100.00
2022-12-18T18:18:47.413Z,100.00
2022-12-18T18:21:13.827Z,100.00
2022-12-18T18:23:42.899Z,100.00
2022-12-18T18:26:11.613Z,100.00
2022-12-18T18:28:38.155Z,100.00
2022-12-18T18:31:06.201Z,100.00
2022-12-18T18:33:33.527Z,100.00
2022-12-18T18:36:00.441Z,100.00
2022-12-18T18:38:27.281Z,100.00
2022-12-18T18:41:04.709Z,100.00
2022-12-18T18:43:31.469Z,100.00
2022-12-18T18:46:03.316Z,100.00
2022-12-18T18:48:33.811Z,100.00
2022-12-18T18:51:07.305Z,100.00
2022-12-18T18:53:38.838Z,100.00
2022-12-18T18:56:45.507Z,100.00
2022-12-18T18:58:55.984Z,100.00
2022-12-18T19:01:23.477Z,100.00
2022-12-18T19:03:50.907Z,100.00
2022-12-18T19:06:20.214Z,100.00
2022-12-18T19:08:47.733Z,100.00
2022-12-18T19:11:14.798Z,100.00
2022-12-18T19:13:41.588Z,100.00
2022-12-18T19:16:09.299Z,100.00
2022-12-18T19:18:36.844Z,100.00
2022-12-18T19:21:05.718Z,100.00
2022-12-18T19:23:34.093Z,100.00
2022-12-18T19:26:26.898Z,100.00
2022-12-18T19:28:51.404Z,100.00
2022-12-18T19:31:24.181Z,100.00
2022-12-18T19:33:51.982Z,100.00
2022-12-18T19:36:21.371Z,100.00
2022-12-18T19:38:49.798Z,100.00
2022-12-18T19:41:17.063Z,100.00
2022-12-18T19:43:45.898Z,100.00
2022-12-18T19:46:16.913Z,100.00
2022-12-18T19:48:44.770Z,100.00
2022-12-18T19:51:17.527Z,100.00
2022-12-18T19:53:44.667Z,100.00
2022-12-18T19:56:14.894Z,100.00
2022-12-18T19:58:41.685Z,100.00
2022-12-18T20:01:16.811Z,100.00
2022-12-18T20:03:48.031Z,100.00
2022-12-18T20:06:30.490Z,100.00
2022-12-18T20:09:00.739Z,100.00
2022-12-18T20:11:29.020Z,100.00
2022-12-18T20:13:55.574Z,100.00
2022-12-18T20:16:23.549Z,100.00
2022-12-18T20:18:50.007Z,100.00
2022-12-18T20:21:20.349Z,100.00
2022-12-18T20:23:46.819Z,100.00
2022-12-18T20:26:15.350Z,100.00
2022-12-18T20:28:41.812Z,100.00
2022-12-18T20:31:10.380Z,100.00
2022-12-18T20:33:40.379Z,100.00
2022-12-18T20:36:10.405Z,100.00
2022-12-18T20:38:37.199Z,100.00
2022-12-18T20:41:07.614Z,100.00
2022-12-18T20:43:34.363Z,100.00
2022-12-18T20:46:02.869Z,100.00
2022-12-18T20:48:30.109Z,100.00
2022-12-18T20:51:17.677Z,100.00
2022-12-18T20:53:45.857Z,100.00
2022-12-18T20:56:20.111Z,100.00
2022-12-18T20:58:51.302Z,100.00
2022-12-18T21:01:22.730Z,100.00
2022-12-18T21:03:50.026Z,100.00
2022-12-18T21:06:19.833Z,100.00
2022-12-18T21:08:46.433Z,100.00
2022-12-18T21:11:21.982Z,100.00
2022-12-18T21:13:49.019Z,100.00
2022-12-18T21:16:15.540Z,100.00
2022-12-18T21:18:42.535Z,100.00
2022-12-18T21:21:08.990Z,100.00
2022-12-18T21:23:35.533Z,100.00
2022-12-18T21:26:34.547Z,100.00
2022-12-18T21:29:03.894Z,100.00
2022-12-18T21:31:34.184Z,100.00
2022-12-18T21:34:02.447Z,100.00
2022-12-18T21:36:29.967Z,100.00
2022-12-18T21:38:57.315Z,100.00
2022-12-18T21:41:25.479Z,100.00
2022-12-18T21:43:52.140Z,100.00
2022-12-18T21:46:18.679Z,100.00
2022-12-18T21:48:45.189Z,100.00
2022-12-18T21:51:11.633Z,100.00
2022-12-18T21:53:38.102Z,100.00
2022-12-18T21:56:04.716Z,100.00
2022-12-18T21:58:31.216Z,100.00
2022-12-18T22:00:57.761Z,100.00
2022-12-18T22:03:24.363Z,100.00
2022-12-18T22:06:08.880Z,100.00
2022-12-18T22:08:36.024Z,100.00
2022-12-18T22:11:06.923Z,100.00
2022-12-18T22:13:33.345Z,100.00
2022-12-18T22:15:59.873Z,100.00
2022-12-18T22:18:26.309Z,100.00
2022-12-18T22:21:04.525Z,100.00
2022-12-18T22:23:31.189Z,100.00
2022-12-18T22:25:58.053Z,100.00
2022-12-18T22:28:24.552Z,100.00
2022-12-18T22:30:51.946Z,100.00
2022-12-18T22:33:25.481Z,100.00
2022-12-18T22:35:51.874Z,100.00
2022-12-18T22:38:18.305Z,100.00
2022-12-18T22:40:44.742Z,100.00
2022-12-18T22:43:11.178Z,100.00
2022-12-18T22:45:38.356Z,100.00
2022-12-18T22:48:05.667Z,100.00
2022-12-18T22:50:32.101Z,100.00
2022-12-18T22:52:58.525Z,100.00
2022-12-18T22:55:24.954Z,100.00
2022-12-18T22:57:51.398Z,100.00
2022-12-18T23:00:19.870Z,100.00
2022-12-18T23:02:55.803Z,100.00
2022-12-18T23:05:26.107Z,100.00
2022-12-18T23:07:52.535Z,100.00
2022-12-18T23:10:19.011Z,100.00
2022-12-18T23:12:45.410Z,100.00
2022-12-18T23:15:12.212Z,100.00
2022-12-18T23:17:39.735Z,100.00
2022-12-18T23:20:06.540Z,100.00
2022-12-18T23:22:32.997Z,100.00
2022-12-18T23:24:59.445Z,100.00
2022-12-18T23:27:25.855Z,100.00
2022-12-18T23:29:52.328Z,100.00
2022-12-18T23:32:20.218Z,100.00
2022-12-18T23:34:46.655Z,100.00
2022-12-18T23:37:18.229Z,100.00
2022-12-18T23:39:51.497Z,100.00
2022-12-18T23:42:17.929Z,100.00
2022-12-18T23:44:45.246Z,100.00
2022-12-18T23:47:11.643Z,100.00
2022-12-18T23:49:38.122Z,100.00
2022-12-18T23:52:07.782Z,100.00
2022-12-18T23:54:34.233Z,100.00
2022-12-18T23:57:00.889Z,100.00
2022-12-18T23:59:27.343Z,100.00
